Time;durP1;ratioP1;P1;durP2;ratioP2;P2;SDS_P1;SDS_P2;PMS_P1;PMS_P2;Temp;Humidity;BMP_temperature;BMP_pressure;BME280_temperature;BME280_humidity;BME280_pressure;Samples;Min_cycle;Max_cycle;Signal;HPM_P1;HPM_P2
2021/07/16 00:01:41;;;;;;;;;0.00;0.00;;;;;26.27;91.26;101584.06;5040965;28;45457;-63
2021/07/16 00:04:08;;;;;;;;;0.00;0.00;;;;;26.25;92.62;101573.47;5040864;28;45206;-63
2021/07/16 00:06:34;;;;;;;;;0.00;0.00;;;;;26.24;92.21;101571.81;5041031;28;45392;-62
2021/07/16 00:08:59;;;;;;;;;0.00;0.00;;;;;26.19;92.91;101582.34;5040232;28;46636;-62
2021/07/16 00:11:24;;;;;;;;;0.00;0.00;;;;;26.24;92.44;101570.97;5040711;28;45533;-64
2021/07/16 00:13:50;;;;;;;;;0.00;0.00;;;;;26.26;92.56;101567.03;5040667;28;45455;-63
2021/07/16 00:16:15;;;;;;;;;0.00;0.00;;;;;26.31;92.59;101567.28;5040812;28;45383;-63
2021/07/16 00:18:42;;;;;;;;;0.00;0.00;;;;;26.34;93.31;101566.03;5040661;28;46130;-63
2021/07/16 00:21:08;;;;;;;;;0.00;0.00;;;;;26.33;92.72;101564.38;5040612;28;45248;-63
2021/07/16 00:23:33;;;;;;;;;0.00;0.00;;;;;26.30;92.68;101571.00;5040828;28;45521;-63
2021/07/16 00:25:58;;;;;;;;;0.00;0.00;;;;;26.25;93.58;101570.78;5040915;28;45280;-62
2021/07/16 00:28:24;;;;;;;;;0.00;0.00;;;;;26.26;93.54;101569.72;5040328;28;45462;-62
2021/07/16 00:30:50;;;;;;;;;0.00;0.00;;;;;26.22;93.52;101565.81;5040599;28;45256;-63
2021/07/16 00:33:16;;;;;;;;;0.00;0.00;;;;;26.17;93.59;101558.31;5040809;28;45379;-62
2021/07/16 00:35:42;;;;;;;;;0.00;0.00;;;;;26.13;94.07;101564.31;5041271;28;45357;-62
2021/07/16 00:38:07;;;;;;;;;0.00;0.00;;;;;26.15;93.51;101564.94;5034595;28;46380;-62
2021/07/16 00:40:32;;;;;;;;;0.00;0.00;;;;;26.21;93.77;101560.63;5020852;28;45491;-63
2021/07/16 00:42:58;;;;;;;;;0.00;0.00;;;;;26.17;93.67;101565.56;5020508;28;45257;-63
2021/07/16 00:45:24;;;;;;;;;0.00;0.00;;;;;26.20;93.84;101573.25;5021021;28;45348;-62
2021/07/16 00:47:50;;;;;;;;;0.00;0.00;;;;;26.20;93.74;101567.88;5020578;28;46322;-63
2021/07/16 00:50:33;;;;;;;;;0.00;0.00;;;;;26.19;94.16;101567.03;5020257;28;45400;-63
2021/07/16 00:52:59;;;;;;;;;0.00;0.00;;;;;26.57;93.33;101563.84;5028340;28;45362;-62
2021/07/16 00:55:25;;;;;;;;;0.00;0.00;;;;;26.18;93.79;101572.63;5040556;28;45374;-62
2021/07/16 00:57:51;;;;;;;;;0.00;0.00;;;;;26.12;94.34;101571.56;5040919;28;46438;-62
2021/07/16 01:00:17;;;;;;;;;0.00;0.00;;;;;26.07;94.85;101571.34;5043662;28;45422;-63
2021/07/16 01:02:43;;;;;;;;;0.00;0.00;;;;;26.07;94.76;101578.56;5043862;28;45225;-63
2021/07/16 01:05:11;;;;;;;;;0.00;0.00;;;;;26.10;95.24;101572.81;5043774;28;45328;-63
2021/07/16 01:07:38;;;;;;;;;0.00;0.00;;;;;26.04;95.26;101573.59;5043303;28;45299;-63
2021/07/16 01:10:06;;;;;;;;;0.00;0.00;;;;;26.01;95.61;101572.16;5043382;28;45370;-63
2021/07/16 01:12:33;;;;;;;;;0.00;0.00;;;;;26.50;93.83;101579.13;5043567;28;45520;-63
2021/07/16 01:15:02;;;;;;;;;0.00;0.00;;;;;26.52;93.14;101581.59;5043861;28;45510;-63
2021/07/16 01:17:29;;;;;;;;;0.00;0.00;;;;;26.60;92.65;101570.66;5043748;28;45576;-63
2021/07/16 01:20:00;;;;;;;;;0.00;0.00;;;;;26.45;91.84;101575.38;5043340;28;45399;-63
2021/07/16 01:22:28;;;;;;;;;0.00;0.00;;;;;26.10;95.34;101576.31;5043703;28;45361;-63
2021/07/16 01:24:54;;;;;;;;;0.00;0.00;;;;;26.06;95.97;101574.25;5043530;28;45390;-63
2021/07/16 01:27:20;;;;;;;;;0.00;0.00;;;;;26.38;94.95;101578.88;5043136;28;46269;-63
2021/07/16 01:29:47;;;;;;;;;0.00;0.00;;;;;26.52;93.57;101576.22;5042875;28;45320;-63
2021/07/16 01:32:17;;;;;;;;;0.00;0.00;;;;;26.51;93.61;101570.00;5043355;28;45315;-63
2021/07/16 01:34:44;;;;;;;;;0.00;0.00;;;;;26.42;94.47;101573.09;5043496;28;45400;-63
2021/07/16 01:37:09;;;;;;;;;0.00;0.00;;;;;26.37;94.66;101579.09;5043333;28;45509;-62
2021/07/16 01:39:35;;;;;;;;;0.00;0.00;;;;;25.99;96.27;101579.59;5025334;28;45409;-62
2021/07/16 01:42:03;;;;;;;;;0.00;0.00;;;;;25.89;97.22;101592.59;5041762;28;45327;-62
2021/07/16 01:44:29;;;;;;;;;0.00;0.00;;;;;25.84;97.95;101584.25;5043184;28;45444;-62
2021/07/16 01:46:54;;;;;;;;;0.00;0.00;;;;;25.82;97.50;101583.63;5025131;28;46359;-62
2021/07/16 01:49:19;;;;;;;;;0.00;0.00;;;;;25.80;98.37;101583.81;5042843;28;45232;-62
2021/07/16 01:51:45;;;;;;;;;0.00;0.00;;;;;25.79;98.11;101587.56;5043278;28;45299;-62
2021/07/16 01:54:10;;;;;;;;;0.00;0.00;;;;;25.86;98.17;101582.19;5043089;28;45183;-62
2021/07/16 01:56:36;;;;;;;;;0.00;0.00;;;;;25.91;97.55;101585.16;5042615;28;45478;-62
2021/07/16 01:59:01;;;;;;;;;0.00;0.00;;;;;25.84;97.63;101577.00;5043029;28;45233;-62
2021/07/16 02:01:28;;;;;;;;;0.00;0.00;;;;;25.82;97.77;101579.06;5025041;28;45298;-62
2021/07/16 02:03:53;;;;;;;;;0.00;0.00;;;;;25.83;99.20;101575.38;5043219;28;45317;-62
2021/07/16 02:06:19;;;;;;;;;0.00;0.00;;;;;25.87;97.63;101576.59;5042692;28;46065;-62
2021/07/16 02:08:45;;;;;;;;;0.00;0.00;;;;;26.48;96.11;101574.97;5042694;28;45359;-62
2021/07/16 02:11:10;;;;;;;;;0.00;0.00;;;;;26.10;96.73;101572.81;5042043;28;45327;-62
2021/07/16 02:13:36;;;;;;;;;0.00;0.00;;;;;25.98;97.37;101577.91;5042767;28;45466;-62
2021/07/16 02:16:01;;;;;;;;;0.00;0.00;;;;;25.95;98.11;101572.94;5042479;28;45462;-62
2021/07/16 02:18:27;;;;;;;;;0.00;0.00;;;;;25.88;97.95;101570.22;5042280;28;45378;-62
2021/07/16 02:20:53;;;;;;;;;0.00;0.00;;;;;25.81;98.59;101561.28;5024591;28;45438;-62
2021/07/16 02:23:27;;;;;;;;;0.00;0.00;;;;;25.81;98.56;101565.81;5042618;28;45406;-62
2021/07/16 02:25:53;;;;;;;;;0.00;0.00;;;;;25.82;98.86;101564.78;5024385;28;46588;-62
2021/07/16 02:28:37;;;;;;;;;0.00;0.00;;;;;25.82;99.02;101562.09;5042205;28;45248;-62
2021/07/16 02:31:07;;;;;;;;;0.00;0.00;;;;;25.81;100.00;101557.72;5041869;28;45394;-62
2021/07/16 02:33:34;;;;;;;;;0.00;0.00;;;;;25.76;99.67;101567.22;5042796;28;45386;-62
2021/07/16 02:36:00;;;;;;;;;0.00;0.00;;;;;25.83;99.35;101564.59;5042168;28;45498;-62
2021/07/16 02:38:26;;;;;;;;;0.00;0.00;;;;;25.73;99.65;101570.34;5034097;28;45399;-62
2021/07/16 02:40:52;;;;;;;;;0.00;0.00;;;;;25.77;100.00;101565.41;5037290;28;45407;-62
2021/07/16 02:43:18;;;;;;;;;0.00;0.00;;;;;25.83;99.83;101563.75;5042349;28;45256;-62
2021/07/16 02:45:44;;;;;;;;;0.00;0.00;;;;;25.82;99.65;101568.31;5041921;28;45342;-62
2021/07/16 02:48:09;;;;;;;;;0.00;0.00;;;;;25.75;100.00;101570.97;5042486;28;45236;-62
2021/07/16 02:50:41;;;;;;;;;0.00;0.00;;;;;25.78;100.00;101564.34;5042102;28;45236;-62
2021/07/16 02:53:12;;;;;;;;;0.00;0.00;;;;;25.71;100.00;101569.69;5042269;28;45410;-62
2021/07/16 02:55:39;;;;;;;;;0.00;0.00;;;;;26.15;99.24;101568.47;5041751;28;45563;-62
2021/07/16 02:58:05;;;;;;;;;0.00;0.00;;;;;26.33;97.89;101570.59;5041910;28;45411;-62
2021/07/16 03:00:31;;;;;;;;;0.00;0.00;;;;;25.76;99.83;101575.31;5042144;28;45389;-62
2021/07/16 03:02:57;;;;;;;;;0.00;0.00;;;;;25.78;100.00;101567.03;5042468;28;45475;-62
2021/07/16 03:05:29;;;;;;;;;0.00;0.00;;;;;26.15;98.62;101565.75;5042061;28;45217;-62
2021/07/16 03:07:56;;;;;;;;;0.00;0.00;;;;;26.14;99.10;101574.06;5042094;28;45296;-62
2021/07/16 03:10:25;;;;;;;;;0.00;0.00;;;;;25.65;100.00;101569.66;5041909;28;45236;-62
2021/07/16 03:12:52;;;;;;;;;0.00;0.00;;;;;25.99;100.00;101566.13;5041964;28;45337;-62
2021/07/16 03:15:21;;;;;;;;;0.00;0.00;;;;;26.04;100.00;101569.03;5041518;28;45411;-61
2021/07/16 03:17:47;;;;;;;;;0.00;0.00;;;;;25.69;100.00;101574.44;5041656;28;45408;-63
2021/07/16 03:20:16;;;;;;;;;0.00;0.00;;;;;25.91;100.00;101569.00;5041437;28;45265;-62
2021/07/16 03:22:41;;;;;;;;;0.00;0.00;;;;;25.88;100.00;101567.53;5040583;28;45206;-62
2021/07/16 03:25:10;;;;;;;;;0.00;0.00;;;;;25.89;100.00;101571.88;5041446;28;46006;-62
2021/07/16 03:27:36;;;;;;;;;0.00;0.00;;;;;25.95;100.00;101576.47;5041069;28;45349;-61
2021/07/16 03:30:07;;;;;;;;;0.00;0.00;;;;;25.68;100.00;101577.34;5041027;28;45427;-63
2021/07/16 03:32:33;;;;;;;;;0.00;0.00;;;;;25.58;100.00;101572.31;5041928;28;45431;-61
2021/07/16 03:34:58;;;;;;;;;0.00;0.00;;;;;25.58;100.00;101570.47;5041430;28;46916;-62
2021/07/16 03:37:23;;;;;;;;;0.00;0.00;;;;;25.83;100.00;101585.28;5041363;28;45303;-62
2021/07/16 03:39:50;;;;;;;;;0.00;0.00;;;;;25.82;100.00;101580.94;5021784;28;45318;-62
2021/07/16 03:42:17;;;;;;;;;0.00;0.00;;;;;25.77;100.00;101581.53;5021978;28;45252;-63
2021/07/16 03:44:42;;;;;;;;;0.00;0.00;;;;;25.93;100.00;101583.91;5021285;28;45388;-63
2021/07/16 03:47:15;;;;;;;;;0.00;0.00;;;;;26.01;100.00;101579.41;5021555;28;45225;-62
2021/07/16 03:49:42;;;;;;;;;0.00;0.00;;;;;26.03;100.00;101582.72;5029029;28;45450;-63
2021/07/16 03:52:07;;;;;;;;;0.00;0.00;;;;;26.02;100.00;101579.19;5041660;28;45353;-62
2021/07/16 03:54:34;;;;;;;;;0.00;0.00;;;;;25.97;100.00;101585.16;5041335;28;46616;-62
2021/07/16 03:57:00;;;;;;;;;0.00;0.00;;;;;25.61;100.00;101585.38;5041194;28;45208;-62
2021/07/16 03:59:25;;;;;;;;;0.00;0.00;;;;;25.52;100.00;101584.69;5041240;28;45161;-62
2021/07/16 04:01:51;;;;;;;;;0.00;0.00;;;;;25.49;100.00;101586.97;5023232;28;45510;-62
2021/07/16 04:04:16;;;;;;;;;0.00;0.00;;;;;25.52;100.00;101579.31;5040602;28;55662;-63
2021/07/16 04:06:50;;;;;;;;;0.00;0.00;;;;;25.50;100.00;101581.38;5041257;28;45275;-62
2021/07/16 04:09:34;;;;;;;;;0.00;0.00;;;;;25.45;100.00;101578.47;5040885;28;45241;-63
2021/07/16 04:12:16;;;;;;;;;0.00;0.00;;;;;25.42;100.00;101575.31;5040811;28;45239;-64
2021/07/16 04:14:46;;;;;;;;;0.00;0.00;;;;;25.46;100.00;101584.66;5040685;28;46935;-64
2021/07/16 04:17:18;;;;;;;;;0.00;0.00;;;;;25.47;100.00;101583.66;5040834;28;45173;-63
2021/07/16 04:19:44;;;;;;;;;0.00;0.00;;;;;25.49;100.00;101585.09;5040979;28;45382;-63
2021/07/16 04:22:10;;;;;;;;;0.00;0.00;;;;;25.51;100.00;101582.22;5041283;28;45259;-63
2021/07/16 04:24:37;;;;;;;;;0.00;0.00;;;;;25.42;100.00;101576.16;5040556;28;45360;-62
2021/07/16 04:27:04;;;;;;;;;0.00;0.00;;;;;25.36;100.00;101585.84;5022547;28;45359;-63
2021/07/16 04:29:30;;;;;;;;;0.00;0.00;;;;;25.36;100.00;101593.09;5040423;28;45305;-63
2021/07/16 04:31:58;;;;;;;;;0.00;0.00;;;;;25.37;100.00;101586.66;5040985;28;45474;-63
2021/07/16 04:34:23;;;;;;;;;0.00;0.00;;;;;25.33;100.00;101582.72;5043500;28;45417;-63
2021/07/16 04:36:49;;;;;;;;;0.00;0.00;;;;;25.35;100.00;101583.34;5044104;28;45165;-64
2021/07/16 04:39:14;;;;;;;;;0.00;0.00;;;;;25.31;100.00;101596.38;5030420;28;45672;-63
2021/07/16 04:41:39;;;;;;;;;0.00;0.00;;;;;25.32;100.00;101599.88;5044302;28;45295;-63
2021/07/16 04:44:05;;;;;;;;;0.00;0.00;;;;;25.27;100.00;101594.25;5043515;28;46617;-62
2021/07/16 04:46:30;;;;;;;;;0.00;0.00;;;;;25.31;100.00;101598.22;5043927;28;45233;-62
2021/07/16 04:48:56;;;;;;;;;0.00;0.00;;;;;25.27;100.00;101603.16;5043728;28;45292;-62
2021/07/16 04:51:26;;;;;;;;;0.00;0.00;;;;;25.27;100.00;101605.84;5043946;28;45415;-62
2021/07/16 04:53:55;;;;;;;;;0.00;0.00;;;;;25.23;100.00;101601.06;5043754;28;46340;-63
2021/07/16 04:56:22;;;;;;;;;0.00;0.00;;;;;25.24;100.00;101600.03;5043858;28;45366;-63
2021/07/16 04:58:48;;;;;;;;;0.00;0.00;;;;;25.23;100.00;101601.88;5043444;28;45362;-63
2021/07/16 05:01:14;;;;;;;;;0.00;0.00;;;;;25.27;100.00;101600.47;5043696;28;45497;-63
2021/07/16 05:03:39;;;;;;;;;0.00;0.00;;;;;25.30;100.00;101604.63;5043525;28;45427;-62
2021/07/16 05:06:05;;;;;;;;;0.00;0.00;;;;;25.29;100.00;101611.00;5043557;28;45418;-62
2021/07/16 05:08:30;;;;;;;;;0.00;0.00;;;;;25.24;100.00;101608.09;5043244;28;45267;-62
2021/07/16 05:10:56;;;;;;;;;0.00;0.00;;;;;25.30;100.00;101608.13;5043347;28;45241;-63
2021/07/16 05:13:21;;;;;;;;;0.00;0.00;;;;;25.28;100.00;101602.13;5043142;28;45327;-61
2021/07/16 05:15:47;;;;;;;;;0.00;0.00;;;;;25.60;100.00;101599.03;5043358;28;45298;-62
2021/07/16 05:18:12;;;;;;;;;0.00;0.00;;;;;25.64;100.00;101605.66;5043303;28;45540;-62
2021/07/16 05:20:37;;;;;;;;;0.00;0.00;;;;;25.69;100.00;101604.03;5043608;28;45264;-63
2021/07/16 05:23:03;;;;;;;;;0.00;0.00;;;;;25.57;100.00;101614.53;5043013;28;49056;-63
2021/07/16 05:25:28;;;;;;;;;0.00;0.00;;;;;25.71;100.00;101614.63;5043442;28;45161;-62
2021/07/16 05:27:54;;;;;;;;;0.00;0.00;;;;;25.57;100.00;101611.84;5042902;28;45470;-62
2021/07/16 05:30:19;;;;;;;;;0.00;0.00;;;;;25.53;100.00;101615.97;5042855;28;45561;-62
2021/07/16 05:32:44;;;;;;;;;0.00;0.00;;;;;25.64;100.00;101611.03;5042836;28;46453;-62
2021/07/16 05:35:10;;;;;;;;;0.00;0.00;;;;;25.62;100.00;101618.50;5043068;28;45182;-62
2021/07/16 05:37:35;;;;;;;;;0.00;0.00;;;;;25.62;100.00;101618.50;5040722;28;45486;-63
2021/07/16 05:40:01;;;;;;;;;0.00;0.00;;;;;25.57;100.00;101625.31;5032367;28;45450;-63
2021/07/16 05:42:26;;;;;;;;;0.00;0.00;;;;;25.51;100.00;101618.00;5042546;28;45269;-63
2021/07/16 05:44:52;;;;;;;;;0.00;0.00;;;;;25.60;100.00;101613.31;5041901;28;45280;-64
2021/07/16 05:47:17;;;;;;;;;0.00;0.00;;;;;25.59;100.00;101622.41;5042869;28;45273;-64
2021/07/16 05:49:43;;;;;;;;;0.00;0.00;;;;;25.61;100.00;101619.50;5042714;28;45494;-63
2021/07/16 05:52:08;;;;;;;;;0.00;0.00;;;;;25.64;100.00;101624.50;5042246;28;45544;-63
2021/07/16 05:54:34;;;;;;;;;0.00;0.00;;;;;25.62;100.00;101623.88;5042517;28;45379;-64
2021/07/16 05:56:59;;;;;;;;;0.00;0.00;;;;;25.65;100.00;101627.00;5042507;28;45477;-63
2021/07/16 05:59:24;;;;;;;;;0.00;0.00;;;;;25.65;100.00;101626.16;5042620;28;45639;-64
2021/07/16 06:01:50;;;;;;;;;0.00;0.00;;;;;25.64;100.00;101630.72;5041989;28;45732;-64
2021/07/16 06:04:15;;;;;;;;;0.00;0.00;;;;;25.75;100.00;101635.53;5004619;28;45320;-64
2021/07/16 06:06:41;;;;;;;;;0.00;0.00;;;;;25.75;100.00;101640.09;5036488;28;45279;-63
2021/07/16 06:09:07;;;;;;;;;0.00;0.00;;;;;25.77;100.00;101644.25;5042161;28;45418;-63
2021/07/16 06:11:32;;;;;;;;;0.00;0.00;;;;;25.72;100.00;101646.72;5042013;28;45495;-63
2021/07/16 06:13:59;;;;;;;;;0.00;0.00;;;;;25.71;100.00;101645.03;5042264;28;45336;-63
2021/07/16 06:16:24;;;;;;;;;0.00;0.00;;;;;25.66;100.00;101647.50;5041875;28;45253;-64
2021/07/16 06:18:50;;;;;;;;;0.00;0.00;;;;;25.68;100.00;101641.91;5042166;28;45225;-64
2021/07/16 06:21:15;;;;;;;;;0.00;0.00;;;;;25.73;100.00;101651.06;5041322;28;45398;-63
2021/07/16 06:23:40;;;;;;;;;0.00;0.00;;;;;25.77;100.00;101656.88;5041654;28;45385;-63
2021/07/16 06:26:06;;;;;;;;;0.00;0.00;;;;;25.81;100.00;101665.38;5041411;28;45240;-63
2021/07/16 06:28:31;;;;;;;;;0.00;0.00;;;;;25.82;100.00;101656.28;5041797;28;45790;-63
2021/07/16 06:30:56;;;;;;;;;0.00;0.00;;;;;25.78;100.00;101650.47;5040943;28;48623;-64
2021/07/16 06:33:21;;;;;;;;;0.00;0.00;;;;;25.72;100.00;101657.47;5023598;28;45299;-63
2021/07/16 06:35:47;;;;;;;;;0.00;0.00;;;;;25.70;100.00;101662.22;5041928;28;45275;-63
2021/07/16 06:38:12;;;;;;;;;0.00;0.00;;;;;25.72;100.00;101670.06;5034891;28;45574;-64
2021/07/16 06:40:37;;;;;;;;;0.00;0.00;;;;;25.74;100.00;101665.34;5035193;28;46449;-63
2021/07/16 06:43:09;;;;;;;;;0.00;0.00;;;;;25.76;100.00;101677.56;5041416;28;45481;-62
2021/07/16 06:45:35;;;;;;;;;0.00;0.00;;;;;25.73;100.00;101677.97;5041703;28;45236;-63
2021/07/16 06:48:00;;;;;;;;;0.00;0.00;;;;;25.71;100.00;101677.31;5041681;28;45227;-64
2021/07/16 06:50:25;;;;;;;;;0.00;0.00;;;;;25.94;100.00;101677.09;5041197;28;45704;-63
2021/07/16 06:52:50;;;;;;;;;0.00;0.00;;;;;25.93;100.00;101682.66;5023358;28;45350;-63
2021/07/16 06:55:16;;;;;;;;;0.00;0.00;;;;;25.93;100.00;101674.59;5041033;28;45285;-64
2021/07/16 06:57:41;;;;;;;;;0.00;0.00;;;;;26.02;100.00;101678.78;5041351;28;45240;-63
2021/07/16 07:00:08;;;;;;;;;0.00;0.00;;;;;26.07;100.00;101678.19;5040838;28;45303;-64
2021/07/16 07:02:33;;;;;;;;;0.00;0.00;;;;;25.84;100.00;101681.97;5023092;28;45287;-64
2021/07/16 07:04:58;;;;;;;;;0.00;0.00;;;;;25.79;100.00;101687.13;5041283;28;45264;-63
2021/07/16 07:07:24;;;;;;;;;0.00;0.00;;;;;26.00;100.00;101688.91;5041093;28;45333;-64
2021/07/16 07:09:49;;;;;;;;;0.00;0.00;;;;;26.06;100.00;101687.28;5032772;28;45987;-64
2021/07/16 07:12:15;;;;;;;;;0.00;0.00;;;;;26.09;100.00;101690.44;5035788;28;45333;-62
2021/07/16 07:14:40;;;;;;;;;0.00;0.00;;;;;26.09;100.00;101694.97;5029419;28;45260;-63
2021/07/16 07:17:06;;;;;;;;;0.00;0.00;;;;;26.12;100.00;101699.97;5041146;28;45304;-62
2021/07/16 07:19:32;;;;;;;;;0.00;0.00;;;;;26.06;100.00;101700.75;5040885;28;45379;-63
2021/07/16 07:21:57;;;;;;;;;0.00;0.00;;;;;26.20;100.00;101691.72;5015539;28;45355;-63
2021/07/16 07:24:23;;;;;;;;;0.00;0.00;;;;;26.32;100.00;101700.88;5034980;28;45447;-64
2021/07/16 07:26:49;;;;;;;;;0.00;0.00;;;;;26.35;100.00;101695.13;5031217;28;45639;-63
2021/07/16 07:29:14;;;;;;;;;0.00;0.00;;;;;26.43;100.00;101693.28;5036491;28;46584;-63
2021/07/16 07:31:40;;;;;;;;;0.00;0.00;;;;;26.57;100.00;101692.31;5034167;28;45525;-65
2021/07/16 07:34:05;;;;;;;;;0.00;0.00;;;;;26.72;100.00;101694.88;5034141;28;45329;-64
2021/07/16 07:36:31;;;;;;;;;0.00;0.00;;;;;26.79;99.63;101695.69;5032558;28;45382;-63
2021/07/16 07:38:56;;;;;;;;;0.00;0.00;;;;;26.82;99.01;101697.16;5037666;28;45580;-65
2021/07/16 07:41:22;;;;;;;;;0.00;0.00;;;;;26.98;99.29;101700.31;5033078;28;45248;-64
2021/07/16 07:43:47;;;;;;;;;0.00;0.00;;;;;27.03;98.10;101696.16;5030687;28;45509;-62
2021/07/16 07:46:13;;;;;;;;;0.00;0.00;;;;;27.06;98.50;101693.06;5039220;28;45395;-63
2021/07/16 07:48:40;;;;;;;;;0.00;0.00;;;;;27.16;97.49;101693.47;5040667;28;45581;-63
2021/07/16 07:51:05;;;;;;;;;0.00;0.00;;;;;27.20;97.77;101692.03;5040480;28;45356;-64
2021/07/16 07:53:30;;;;;;;;;0.00;0.00;;;;;27.29;96.18;101698.91;5041317;28;45225;-64
2021/07/16 07:55:56;;;;;;;;;0.00;0.00;;;;;27.42;95.54;101706.19;5040967;28;45311;-64
2021/07/16 07:58:21;;;;;;;;;0.00;0.00;;;;;27.63;95.20;101702.44;5040280;28;46406;-63
2021/07/16 08:00:47;;;;;;;;;0.00;0.00;;;;;27.78;93.95;101704.91;5022616;28;45363;-64
2021/07/16 08:03:12;;;;;;;;;0.00;0.00;;;;;27.75;93.44;101700.78;5041115;28;45257;-63
2021/07/16 08:05:38;;;;;;;;;0.00;0.00;;;;;27.85;92.48;101707.59;5042007;28;45328;-63
2021/07/16 08:08:03;;;;;;;;;0.00;0.00;;;;;27.88;91.27;101707.19;5020524;28;46433;-64
2021/07/16 08:10:29;;;;;;;;;0.00;0.00;;;;;27.94;91.83;101717.16;5036574;28;45316;-64
2021/07/16 08:12:55;;;;;;;;;0.00;0.00;;;;;28.10;89.35;101722.13;5037731;28;45308;-63
2021/07/16 08:15:21;;;;;;;;;0.00;0.00;;;;;28.11;90.46;101728.34;5028909;28;46548;-63
2021/07/16 08:17:46;;;;;;;;;0.00;0.00;;;;;28.19;90.32;101726.25;5039310;28;46075;-62
2021/07/16 08:20:12;;;;;;;;;0.00;0.00;;;;;28.29;89.19;101730.38;5028387;28;45418;-63
2021/07/16 08:22:39;;;;;;;;;0.00;0.00;;;;;28.40;89.57;101735.09;5037938;28;45457;-62
2021/07/16 08:25:06;;;;;;;;;0.00;0.00;;;;;28.46;88.92;101730.72;5038368;28;45500;-64
2021/07/16 08:27:32;;;;;;;;;0.00;0.00;;;;;28.12;88.71;101736.25;5032180;28;45401;-62
2021/07/16 08:29:58;;;;;;;;;0.00;0.00;;;;;27.92;89.22;101732.75;5037701;28;45417;-64
2021/07/16 08:32:23;;;;;;;;;0.00;0.00;;;;;27.83;88.79;101734.81;5041175;28;45249;-63
2021/07/16 08:34:48;;;;;;;;;0.00;0.00;;;;;27.74;89.40;101728.78;5039376;28;45224;-64
2021/07/16 08:37:14;;;;;;;;;0.00;0.00;;;;;27.73;89.63;101734.38;5039347;28;46243;-65
2021/07/16 08:39:40;;;;;;;;;0.00;0.00;;;;;27.58;89.46;101738.16;5038189;28;45210;-65
2021/07/16 08:42:07;;;;;;;;;0.00;0.00;;;;;27.58;89.96;101737.31;5036847;28;45451;-65
2021/07/16 08:44:36;;;;;;;;;0.00;0.00;;;;;27.63;89.48;101734.00;5042725;28;45484;-65
2021/07/16 08:47:02;;;;;;;;;0.00;0.00;;;;;27.65;90.06;101740.84;5041850;28;46299;-66
2021/07/16 08:49:27;;;;;;;;;0.00;0.00;;;;;27.74;89.23;101736.06;5040051;28;46272;-64
2021/07/16 08:51:54;;;;;;;;;0.00;0.00;;;;;27.89;89.09;101746.69;5022520;28;45355;-65
2021/07/16 08:54:19;;;;;;;;;0.00;0.00;;;;;28.03;87.96;101745.59;5039096;28;45285;-64
2021/07/16 08:56:45;;;;;;;;;0.00;0.00;;;;;28.14;88.04;101744.97;5037479;28;45370;-65
2021/07/16 08:59:15;;;;;;;;;0.00;0.00;;;;;28.23;87.99;101740.16;5041177;28;45249;-65
2021/07/16 09:01:42;;;;;;;;;0.00;0.00;;;;;28.21;87.39;101751.16;5048661;28;45608;-64
2021/07/16 09:04:08;;;;;;;;;0.00;0.00;;;;;28.17;88.07;101749.94;5041243;28;45359;-66
2021/07/16 09:06:47;;;;;;;;;0.00;0.00;;;;;28.22;88.38;101757.41;5039034;28;46333;-64
2021/07/16 09:09:15;;;;;;;;;0.00;0.00;;;;;28.29;88.09;101751.97;5040257;28;46046;-65
2021/07/16 09:11:41;;;;;;;;;0.00;0.00;;;;;28.30;88.44;101757.16;5042516;28;45415;-64
2021/07/16 09:14:07;;;;;;;;;0.00;0.00;;;;;28.35;87.63;101759.22;5042915;28;45296;-65
2021/07/16 09:16:33;;;;;;;;;0.00;0.00;;;;;28.42;87.55;101752.78;5042306;28;46408;-65
2021/07/16 09:18:59;;;;;;;;;0.00;0.00;;;;;28.65;87.23;101762.28;5036957;28;45486;-65
2021/07/16 09:21:24;;;;;;;;;0.00;0.00;;;;;28.65;86.90;101753.34;5036460;28;45260;-65
2021/07/16 09:23:49;;;;;;;;;0.00;0.00;;;;;28.62;86.91;101760.84;5036226;28;45462;-64
2021/07/16 09:26:30;;;;;;;;;0.00;0.00;;;;;28.51;86.64;101761.50;5040280;28;46718;-69
2021/07/16 09:28:56;;;;;;;;;0.00;0.00;;;;;28.35;86.86;101767.34;5040464;28;45362;-65
2021/07/16 09:31:27;;;;;;;;;0.00;0.00;;;;;28.30;85.89;101761.75;5041469;28;45277;-67
2021/07/16 09:34:03;;;;;;;;;0.75;0.75;;;;;28.35;86.47;101757.34;5013129;28;46936;-66
2021/07/16 09:36:30;;;;;;;;;0.00;0.00;;;;;28.35;85.48;101760.06;5038281;28;45455;-67
2021/07/16 09:39:08;;;;;;;;;0.00;0.00;;;;;28.31;84.69;101764.22;5030307;28;45201;-67
2021/07/16 09:41:51;;;;;;;;;0.00;0.00;;;;;28.24;84.53;101768.81;5040807;28;45281;-65
2021/07/16 09:44:28;;;;;;;;;0.00;0.00;;;;;28.23;85.15;101769.88;5029006;28;45395;-64
2021/07/16 09:47:14;;;;;;;;;0.00;0.00;;;;;28.20;85.50;101773.81;5037749;28;46541;-68
2021/07/16 09:49:41;;;;;;;;;0.00;0.00;;;;;28.30;85.09;101776.09;5016395;28;45287;-67
2021/07/16 09:52:12;;;;;;;;;0.00;0.00;;;;;28.36;84.47;101779.81;5034395;28;45347;-67
2021/07/16 09:54:38;;;;;;;;;0.00;0.00;;;;;28.37;84.76;101776.88;5041357;28;45526;-70
2021/07/16 09:57:05;;;;;;;;;0.00;0.00;;;;;28.54;85.15;101771.06;5040632;28;46246;-69
2021/07/16 09:59:30;;;;;;;;;0.00;0.00;;;;;28.67;84.32;101773.69;5041266;28;45522;-65
2021/07/16 10:01:56;;;;;;;;;0.00;0.00;;;;;28.79;83.34;101769.28;5040723;28;45237;-69
2021/07/16 10:04:23;;;;;;;;;0.00;0.00;;;;;28.76;83.58;101768.88;5038269;28;45507;-65
2021/07/16 10:06:51;;;;;;;;;0.00;0.00;;;;;28.61;82.85;101761.84;5040037;28;46512;-67
2021/07/16 10:09:18;;;;;;;;;0.00;0.00;;;;;28.45;84.06;101772.31;5035652;28;45346;-71
2021/07/16 10:11:55;;;;;;;;;0.00;0.00;;;;;28.49;83.64;101773.53;5023917;28;45510;-70
2021/07/16 10:14:21;;;;;;;;;0.00;0.00;;;;;28.34;82.93;101773.78;5022912;28;45567;-76
2021/07/16 10:16:49;;;;;;;;;0.00;0.00;;;;;28.17;83.59;101778.81;5032866;28;45377;-68
2021/07/16 10:19:16;;;;;;;;;0.00;0.00;;;;;28.05;84.46;101794.00;5022235;28;45620;-67
2021/07/16 10:21:47;;;;;;;;;0.00;0.00;;;;;28.04;84.28;101787.78;5039247;28;45449;-63
2021/07/16 10:24:14;;;;;;;;;0.00;0.00;;;;;28.09;84.95;101787.97;5023368;28;45427;-65
2021/07/16 10:26:42;;;;;;;;;0.00;0.00;;;;;28.22;84.38;101789.81;5039745;28;45553;-66
2021/07/16 10:29:33;;;;;;;;;0.00;0.00;;;;;28.13;84.24;101800.00;5032218;28;45514;-67
2021/07/16 10:31:58;;;;;;;;;0.00;0.00;;;;;28.06;84.24;101804.59;5026773;28;45522;-67
2021/07/16 10:34:33;;;;;;;;;0.00;0.00;;;;;27.95;84.22;101799.84;5026722;28;45608;-62
2021/07/16 10:37:04;;;;;;;;;0.00;0.00;;;;;27.79;83.89;101801.88;5034371;28;45483;-64
2021/07/16 10:39:51;;;;;;;;;0.00;0.00;;;;;27.71;84.49;101807.50;5030804;28;45273;-66
2021/07/16 10:42:26;;;;;;;;;0.00;0.00;;;;;27.67;84.65;101802.69;5038904;28;45300;-67
2021/07/16 10:44:53;;;;;;;;;0.00;0.00;;;;;27.72;84.95;101819.94;5039542;28;45178;-67
2021/07/16 10:47:37;;;;;;;;;0.00;0.00;;;;;27.68;84.73;101817.88;5035038;28;46270;-67
2021/07/16 10:50:05;;;;;;;;;0.00;0.00;;;;;27.64;84.70;101819.31;5036332;28;45429;-67
2021/07/16 10:52:42;;;;;;;;;0.00;0.00;;;;;27.59;84.52;101818.06;5018756;28;45438;-67
2021/07/16 10:55:08;;;;;;;;;0.00;0.00;;;;;27.60;84.71;101822.44;5033999;28;45569;-66
2021/07/16 10:57:44;;;;;;;;;0.00;0.00;;;;;27.63;84.38;101817.66;5019308;28;46374;-67
2021/07/16 11:00:14;;;;;;;;;0.00;0.00;;;;;27.53;83.76;101823.44;5010676;28;45392;-66
2021/07/16 11:02:45;;;;;;;;;0.00;0.00;;;;;27.54;83.48;101828.66;5031350;28;45568;-68
2021/07/16 11:05:31;;;;;;;;;0.00;0.00;;;;;27.60;82.46;101830.53;5030395;28;45597;-68
2021/07/16 11:07:58;;;;;;;;;0.00;0.00;;;;;27.59;81.97;101830.72;5040031;28;45432;-67
2021/07/16 11:10:55;;;;;;;;;0.00;0.00;;;;;27.49;82.43;101825.72;5040526;28;45586;-66
2021/07/16 11:13:34;;;;;;;;;0.00;0.00;;;;;27.52;82.64;101838.81;5025707;28;45298;-68
2021/07/16 11:16:30;;;;;;;;;0.00;0.00;;;;;27.60;82.96;101829.69;5022697;28;45496;-67
2021/07/16 11:19:07;;;;;;;;;0.00;0.00;;;;;27.83;82.41;101832.81;5017279;28;45553;-68
2021/07/16 11:21:52;;;;;;;;;0.00;0.00;;;;;28.04;81.40;101825.56;5026145;28;45442;-66
2021/07/16 11:24:18;;;;;;;;;0.00;0.00;;;;;28.19;80.92;101822.66;5031282;28;45302;-66